createdAt,value
2018-03-22T00:00:43.307Z,3.88
2018-03-22T00:01:43.273Z,3.78
2018-03-22T00:02:43.253Z,3.84
2018-03-22T00:03:43.218Z,3.92
2018-03-22T00:04:43.183Z,3.8
2018-03-22T00:05:43.174Z,3.86
2018-03-22T00:06:42.882Z,3.86
2018-03-22T00:07:42.595Z,3.83
2018-03-22T00:08:43.066Z,3.8
2018-03-22T00:09:42.789Z,3.77
2018-03-22T00:10:43.007Z,3.81
2018-03-22T00:11:42.476Z,3.76
2018-03-22T00:12:42.699Z,3.78
2018-03-22T00:13:42.663Z,3.77
2018-03-22T00:14:42.386Z,3.77
2018-03-22T00:15:42.602Z,3.91
2018-03-22T00:16:42.322Z,3.74
2018-03-22T00:17:42.294Z,3.81
2018-03-22T00:18:42.521Z,3.7
2018-03-22T00:19:42.236Z,3.78
2018-03-22T00:20:42.702Z,3.78
2018-03-22T00:21:42.683Z,3.74
2018-03-22T00:22:42.658Z,3.74
2018-03-22T00:23:42.364Z,3.83
2018-03-22T00:24:42.083Z,3.81
2018-03-22T00:25:42.565Z,3.84
2018-03-22T00:26:42.274Z,3.84
2018-03-22T00:27:42.240Z,3.76
2018-03-22T00:28:42.461Z,3.74
2018-03-22T00:29:42.431Z,3.76
2018-03-22T00:30:42.396Z,3.74
2018-03-22T00:31:42.369Z,3.81
2018-03-22T00:32:42.351Z,3.76
2018-03-22T00:33:42.309Z,3.86
2018-03-22T00:34:42.281Z,3.74
2018-03-22T00:35:41.998Z,3.83
2018-03-22T00:36:42.214Z,3.78
2018-03-22T00:37:42.179Z,3.78
2018-03-22T00:38:42.157Z,3.81
2018-03-22T00:39:42.117Z,3.78
2018-03-22T00:40:41.837Z,3.81
2018-03-22T00:41:41.810Z,3.77
2018-03-22T00:42:42.046Z,3.8
2018-03-22T00:43:41.996Z,3.8
2018-03-22T00:44:41.721Z,3.84
2018-03-22T00:45:41.945Z,3.8
2018-03-22T00:46:41.907Z,3.78
2018-03-22T00:47:41.876Z,3.77
2018-03-22T00:48:41.855Z,3.77
2018-03-22T00:49:41.817Z,3.87
2018-03-22T00:50:41.536Z,3.84
2018-03-22T00:51:41.763Z,3.74
2018-03-22T00:52:41.735Z,3.78
2018-03-22T00:53:41.708Z,3.91
2018-03-22T00:54:41.666Z,3.74
2018-03-22T00:55:41.630Z,3.76
2018-03-22T00:56:41.603Z,3.77
2018-03-22T00:57:41.573Z,3.84
2018-03-22T00:58:41.551Z,3.8
2018-03-22T00:59:41.514Z,3.86
2018-03-22T01:00:41.487Z,3.87
2018-03-22T01:01:41.452Z,3.83
2018-03-22T01:02:41.178Z,3.83
2018-03-22T01:03:41.394Z,3.8
2018-03-22T01:04:41.363Z,3.86
2018-03-22T01:05:41.096Z,3.81
2018-03-22T01:06:41.305Z,3.88
2018-03-22T01:07:41.274Z,3.87
2018-03-22T01:08:41.245Z,3.95
2018-03-22T01:09:41.208Z,3.86
2018-03-22T01:10:41.207Z,3.81
2018-03-22T01:11:41.160Z,3.78
2018-03-22T01:12:41.125Z,3.91
2018-03-22T01:13:41.089Z,3.94
2018-03-22T01:14:41.428Z,3.84
2018-03-22T01:15:41.028Z,3.94
2018-03-22T01:16:41.001Z,3.91
2018-03-22T01:17:40.968Z,3.84
2018-03-22T01:18:40.949Z,3.98
2018-03-22T01:19:40.912Z,3.87
2018-03-22T01:20:40.876Z,3.88
2018-03-22T01:21:40.598Z,3.95
2018-03-22T01:22:40.816Z,3.92
2018-03-22T01:23:40.793Z,3.92
2018-03-22T01:24:40.759Z,3.94
2018-03-22T01:25:40.727Z,3.86
2018-03-22T01:26:40.697Z,3.86
2018-03-22T01:27:40.674Z,3.96
2018-03-22T01:28:40.635Z,3.92
2018-03-22T01:29:40.604Z,3.84
2018-03-22T01:30:40.578Z,3.88
2018-03-22T01:31:40.334Z,3.94
2018-03-22T01:32:40.019Z,3.92
2018-03-22T01:33:40.492Z,3.94
2018-03-22T01:34:40.458Z,3.92
2018-03-22T01:35:40.435Z,3.83
2018-03-22T01:36:40.399Z,3.88
2018-03-22T01:37:40.363Z,3.87
2018-03-22T01:38:40.334Z,3.88
2018-03-22T01:39:40.059Z,3.95
2018-03-22T01:40:40.293Z,3.84
2018-03-22T01:41:40.247Z,3.87
2018-03-22T01:42:40.216Z,3.99
2018-03-22T01:43:40.182Z,3.95
2018-03-22T01:44:40.154Z,4.01
2018-03-22T01:45:40.125Z,3.92
2018-03-22T01:46:39.851Z,3.98
2018-03-22T01:47:39.822Z,3.88
2018-03-22T01:48:40.030Z,3.87
2018-03-22T01:49:40.006Z,3.94
2018-03-22T01:50:39.976Z,3.87
2018-03-22T01:51:39.948Z,3.94
2018-03-22T01:52:39.913Z,3.88
2018-03-22T01:53:39.632Z,3.91
2018-03-22T01:54:39.856Z,3.88
2018-03-22T01:55:39.828Z,3.91
2018-03-22T01:56:39.798Z,3.92
2018-03-22T01:57:39.519Z,4.01
2018-03-22T01:58:39.736Z,4.02
2018-03-22T01:59:39.713Z,4.01
2018-03-22T02:00:39.674Z,3.98
2018-03-22T02:01:39.398Z,4.02
2018-03-22T02:02:39.613Z,4.06
2018-03-22T02:03:39.580Z,4.06
2018-03-22T02:04:39.304Z,4.08
2018-03-22T02:05:39.281Z,4.05
2018-03-22T02:06:39.242Z,4.02
2018-03-22T02:07:39.466Z,4.05
2018-03-22T02:08:39.439Z,4.06
2018-03-22T02:09:38.912Z,4.01
2018-03-22T02:10:39.124Z,4.04
2018-03-22T02:11:39.099Z,4.04
2018-03-22T02:12:39.308Z,4.05
2018-03-22T02:13:39.283Z,3.99
2018-03-22T02:14:39.251Z,4.04
2018-03-22T02:15:39.218Z,4.12
2018-03-22T02:16:39.188Z,4.1
2018-03-22T02:17:39.157Z,3.99
2018-03-22T02:18:39.139Z,4.06
2018-03-22T02:19:38.850Z,4.06
2018-03-22T02:20:38.821Z,4.1
2018-03-22T02:21:39.044Z,4.06
2018-03-22T02:22:39.014Z,4.13
2018-03-22T02:23:38.992Z,4.08
2018-03-22T02:24:38.959Z,4.1
2018-03-22T02:25:38.932Z,4.05
2018-03-22T02:26:38.891Z,4.06
2018-03-22T02:27:38.614Z,4.19
2018-03-22T02:28:38.827Z,4.14
2018-03-22T02:29:38.804Z,4.24
2018-03-22T02:30:38.776Z,4.23
2018-03-22T02:31:38.803Z,4.23
2018-03-22T02:32:38.465Z,4.24
2018-03-22T02:33:38.681Z,4.23
2018-03-22T02:34:38.657Z,4.35
2018-03-22T02:35:38.641Z,4.26
2018-03-22T02:36:38.602Z,4.26
2018-03-22T02:37:38.317Z,4.34
2018-03-22T02:38:38.551Z,4.34
2018-03-22T02:39:38.258Z,4.34
2018-03-22T02:40:38.226Z,4.38
2018-03-22T02:41:38.444Z,4.37
2018-03-22T02:42:38.418Z,4.41
2018-03-22T02:43:38.485Z,4.44
2018-03-22T02:44:38.357Z,4.38
2018-03-22T02:45:38.337Z,4.4
2018-03-22T02:46:38.304Z,4.48
2018-03-22T02:47:38.263Z,4.41
2018-03-22T02:48:38.234Z,4.37
2018-03-22T02:49:37.954Z,4.42
2018-03-22T02:50:38.179Z,4.35
2018-03-22T02:51:38.147Z,4.35
2018-03-22T02:52:38.118Z,4.31
2018-03-22T02:53:38.086Z,4.32
2018-03-22T02:54:38.067Z,4.3
2018-03-22T02:55:38.036Z,4.37
2018-03-22T02:56:37.993Z,4.28
2018-03-22T02:57:37.962Z,4.34
2018-03-22T02:58:37.951Z,4.32
2018-03-22T02:59:37.906Z,4.32
2018-03-22T03:00:37.677Z,4.24
2018-03-22T03:01:37.855Z,4.3
2018-03-22T03:02:37.819Z,4.34
2018-03-22T03:03:37.787Z,4.28
2018-03-22T03:04:37.505Z,4.3
2018-03-22T03:05:37.738Z,4.3
2018-03-22T03:06:37.702Z,4.26
2018-03-22T03:07:37.415Z,4.16
2018-03-22T03:08:37.637Z,4.3
2018-03-22T03:09:37.603Z,4.28
2018-03-22T03:10:37.574Z,4.26
2018-03-22T03:11:37.295Z,4.16
2018-03-22T03:12:37.513Z,4.2
2018-03-22T03:13:37.521Z,4.26
2018-03-22T03:14:37.201Z,4.23
2018-03-22T03:15:37.432Z,4.17
2018-03-22T03:16:37.146Z,4.19
2018-03-22T03:17:37.364Z,4.23
2018-03-22T03:18:37.339Z,4.24
2018-03-22T03:19:37.311Z,4.17
2018-03-22T03:20:37.023Z,4.23
2018-03-22T03:21:37.245Z,4.2
2018-03-22T03:22:36.963Z,4.1
2018-03-22T03:23:37.197Z,4.23
2018-03-22T03:24:37.161Z,4.23
2018-03-22T03:25:36.624Z,4.22
2018-03-22T03:26:37.094Z,4.2
2018-03-22T03:27:37.070Z,4.23
2018-03-22T03:28:37.032Z,4.3
2018-03-22T03:29:37.059Z,4.14
2018-03-22T03:30:36.727Z,4.2
2018-03-22T03:31:36.703Z,4.19
2018-03-22T03:32:36.910Z,4.23
2018-03-22T03:33:36.889Z,4.19
2018-03-22T03:34:36.860Z,4.2
2018-03-22T03:35:36.826Z,4.23
2018-03-22T03:36:36.544Z,4.19
2018-03-22T03:37:36.517Z,4.17
2018-03-22T03:38:36.235Z,4.08
2018-03-22T03:39:36.459Z,4.12
2018-03-22T03:40:36.670Z,4.04
2018-03-22T03:41:36.396Z,4.1
2018-03-22T03:42:36.625Z,4.08
2018-03-22T03:43:36.336Z,4.08
2018-03-22T03:44:36.306Z,4.04
2018-03-22T03:45:36.529Z,4.04
2018-03-22T03:46:36.497Z,4.05
2018-03-22T03:47:36.466Z,4.01
2018-03-22T03:48:36.188Z,4.06
2018-03-22T03:49:36.406Z,4.05
2018-03-22T03:50:36.372Z,3.99
2018-03-22T03:51:36.097Z,3.98
2018-03-22T03:52:36.064Z,3.98
2018-03-22T03:53:36.280Z,3.98
2018-03-22T03:54:36.256Z,3.92
2018-03-22T03:55:36.227Z,3.88
2018-03-22T03:56:36.195Z,3.91
2018-03-22T03:57:36.164Z,3.92
2018-03-22T03:58:36.132Z,3.91
2018-03-22T03:59:36.109Z,3.88
2018-03-22T04:00:36.075Z,3.87
2018-03-22T04:01:35.797Z,3.86
2018-03-22T04:02:36.012Z,3.87
2018-03-22T04:03:35.983Z,3.92
2018-03-22T04:04:35.956Z,3.88
2018-03-22T04:05:35.925Z,3.91
2018-03-22T04:06:35.891Z,3.88
2018-03-22T04:07:35.864Z,3.98
2018-03-22T04:08:35.590Z,3.91
2018-03-22T04:09:35.811Z,3.96
2018-03-22T04:10:35.772Z,3.95
2018-03-22T04:11:35.740Z,3.96
2018-03-22T04:12:35.717Z,3.96
2018-03-22T04:13:35.931Z,3.94
2018-03-22T04:14:35.658Z,3.96
2018-03-22T04:15:35.623Z,3.95
2018-03-22T04:16:35.344Z,3.88
2018-03-22T04:17:35.567Z,3.86
2018-03-22T04:18:35.532Z,3.91
2018-03-22T04:19:35.521Z,3.94
2018-03-22T04:20:35.480Z,3.86
2018-03-22T04:21:35.200Z,3.92
2018-03-22T04:22:35.413Z,3.83
2018-03-22T04:23:35.380Z,3.95
2018-03-22T04:24:35.356Z,3.87
2018-03-22T04:25:35.315Z,3.86
2018-03-22T04:26:35.301Z,3.96
2018-03-22T04:27:35.263Z,3.92
2018-03-22T04:28:35.252Z,3.86
2018-03-22T04:29:35.199Z,3.95
2018-03-22T04:30:35.169Z,3.88
2018-03-22T04:31:34.889Z,3.92
2018-03-22T04:32:35.111Z,3.96
2018-03-22T04:33:35.081Z,3.87
2018-03-22T04:34:35.054Z,3.84
2018-03-22T04:35:35.017Z,3.84
2018-03-22T04:36:34.741Z,3.91
2018-03-22T04:37:34.708Z,3.91
2018-03-22T04:38:34.942Z,3.91
2018-03-22T04:39:34.895Z,4.01
2018-03-22T04:40:34.624Z,3.84
2018-03-22T04:41:34.833Z,3.99
2018-03-22T04:42:34.811Z,3.81
2018-03-22T04:43:34.529Z,3.86
2018-03-22T04:44:34.751Z,3.88
2018-03-22T04:45:34.712Z,3.84
2018-03-22T04:46:34.438Z,3.86
2018-03-22T04:47:34.653Z,3.81
2018-03-22T04:48:34.623Z,3.88
2018-03-22T04:49:34.348Z,3.92
2018-03-22T04:50:34.562Z,3.95
2018-03-22T04:51:34.551Z,3.78
2018-03-22T04:52:34.553Z,3.88
2018-03-22T04:53:34.472Z,3.84
2018-03-22T04:54:34.444Z,3.8
2018-03-22T04:55:34.415Z,3.77
2018-03-22T04:56:34.383Z,3.86
2018-03-22T04:57:34.350Z,3.8
2018-03-22T04:58:34.331Z,3.78
2018-03-22T04:59:34.292Z,3.78
2018-03-22T05:00:34.267Z,3.78
2018-03-22T05:01:34.242Z,3.77
2018-03-22T05:02:34.200Z,3.76
2018-03-22T05:03:34.178Z,3.78
2018-03-22T05:04:34.150Z,3.77
2018-03-22T05:05:34.121Z,3.84
2018-03-22T05:06:34.086Z,3.83
2018-03-22T05:07:34.052Z,3.76
2018-03-22T05:08:34.766Z,3.74
2018-03-22T05:09:33.742Z,3.68
2018-03-22T05:10:33.964Z,3.66
2018-03-22T05:11:33.680Z,3.66
2018-03-22T05:12:33.900Z,3.63
2018-03-22T05:13:33.620Z,3.65
2018-03-22T05:14:33.340Z,3.5
2018-03-22T05:15:33.812Z,3.5
2018-03-22T05:16:33.527Z,3.59
2018-03-22T05:17:33.500Z,3.58
2018-03-22T05:18:33.717Z,3.44
2018-03-22T05:19:33.440Z,3.5
2018-03-22T05:20:33.658Z,3.37
2018-03-22T05:21:33.644Z,3.37
2018-03-22T05:22:33.600Z,3.41
2018-03-22T05:23:33.568Z,3.42
2018-03-22T05:24:33.541Z,3.29
2018-03-22T05:25:33.506Z,3.37
2018-03-22T05:26:33.478Z,3.26
2018-03-22T05:27:33.201Z,3.31
2018-03-22T05:28:33.165Z,3.31
2018-03-22T05:29:33.384Z,3.34
2018-03-22T05:30:33.350Z,3.32
2018-03-22T05:31:33.324Z,3.31
2018-03-22T05:32:33.043Z,3.29
2018-03-22T05:33:33.259Z,3.28
2018-03-22T05:34:33.042Z,3.34
2018-03-22T05:35:33.400Z,3.36
2018-03-22T05:36:33.180Z,3.26
2018-03-22T05:37:33.139Z,3.19
2018-03-22T05:38:33.107Z,3.25
2018-03-22T05:39:32.829Z,3.26
2018-03-22T05:40:33.050Z,3.32
2018-03-22T05:41:33.022Z,3.26
2018-03-22T05:42:32.988Z,3.32
2018-03-22T05:43:32.952Z,3.28
2018-03-22T05:44:32.674Z,3.26
2018-03-22T05:45:32.891Z,3.28
2018-03-22T05:46:32.862Z,3.23
2018-03-22T05:47:32.841Z,3.19
2018-03-22T05:48:32.568Z,3.25
2018-03-22T05:49:32.767Z,3.28
2018-03-22T05:50:32.746Z,3.22
2018-03-22T05:51:32.708Z,3.28
2018-03-22T05:52:32.680Z,3.26
2018-03-22T05:53:32.397Z,3.29
2018-03-22T05:54:32.611Z,3.32
2018-03-22T05:55:32.582Z,3.31
2018-03-22T05:56:32.550Z,3.31
2018-03-22T05:57:32.529Z,3.29
2018-03-22T05:58:31.995Z,3.31
2018-03-22T05:59:32.454Z,3.34
2018-03-22T06:00:32.438Z,3.28
2018-03-22T06:01:32.150Z,3.31
2018-03-22T06:02:32.364Z,3.29
2018-03-22T06:03:32.438Z,3.26
2018-03-22T06:04:32.314Z,3.26
2018-03-22T06:05:32.276Z,3.22
2018-03-22T06:06:31.995Z,3.28
2018-03-22T06:07:31.974Z,3.21
2018-03-22T06:08:32.208Z,3.25
2018-03-22T06:09:32.154Z,3.26
2018-03-22T06:10:32.125Z,3.26
2018-03-22T06:11:32.089Z,3.34
2018-03-22T06:12:32.067Z,3.28
2018-03-22T06:13:31.782Z,3.36
2018-03-22T06:14:31.997Z,3.37
2018-03-22T06:15:31.968Z,3.31
2018-03-22T06:16:31.687Z,3.37
2018-03-22T06:17:32.668Z,3.41
2018-03-22T06:18:32.900Z,3.4
2018-03-22T06:19:32.756Z,3.41
2018-03-22T06:20:31.812Z,3.42
2018-03-22T06:21:31.538Z,3.44
2018-03-22T06:22:31.750Z,3.44
2018-03-22T06:23:31.478Z,3.44
2018-03-22T06:24:31.695Z,3.41
2018-03-22T06:25:31.658Z,3.44
2018-03-22T06:26:31.630Z,3.41
2018-03-22T06:27:31.345Z,3.41
2018-03-22T06:28:31.564Z,3.42
2018-03-22T06:29:31.546Z,3.45
2018-03-22T06:30:31.504Z,3.41
2018-03-22T06:31:31.233Z,3.36
2018-03-22T06:32:31.449Z,3.37
2018-03-22T06:33:31.166Z,3.36
2018-03-22T06:34:31.383Z,3.37
2018-03-22T06:35:31.104Z,3.36
2018-03-22T06:36:31.319Z,3.34
2018-03-22T06:37:31.296Z,3.28
2018-03-22T06:38:31.023Z,3.26
2018-03-22T06:39:31.233Z,3.31
2018-03-22T06:40:31.197Z,3.36
2018-03-22T06:41:31.167Z,3.31
2018-03-22T06:42:31.151Z,3.32
2018-03-22T06:43:31.109Z,3.29
2018-03-22T06:44:31.086Z,3.29
2018-03-22T06:45:30.800Z,3.31
2018-03-22T06:46:31.071Z,3.4
2018-03-22T06:47:30.746Z,3.23
2018-03-22T06:48:30.956Z,3.34
2018-03-22T06:49:30.721Z,3.31
2018-03-22T06:50:30.645Z,3.31
2018-03-22T06:51:30.617Z,3.34
2018-03-22T06:52:30.584Z,3.36
2018-03-22T06:53:30.808Z,3.34
2018-03-22T06:54:30.771Z,3.34
2018-03-22T06:55:30.741Z,3.29
2018-03-22T06:56:30.716Z,3.32
2018-03-22T06:57:30.683Z,3.42
2018-03-22T06:58:30.652Z,3.28
2018-03-22T06:59:30.627Z,3.37
2018-03-22T07:00:30.342Z,3.29
2018-03-22T07:01:30.682Z,3.28
2018-03-22T07:02:30.539Z,3.4
2018-03-22T07:03:30.025Z,3.41
2018-03-22T07:04:30.257Z,3.32
2018-03-22T07:05:30.758Z,3.34
2018-03-22T07:06:30.645Z,3.32
2018-03-22T07:07:30.130Z,3.28
2018-03-22T07:08:30.098Z,3.14
2018-03-22T07:09:30.088Z,3.28
2018-03-22T07:10:30.303Z,3.25
2018-03-22T07:11:30.352Z,3.21
2018-03-22T07:12:30.233Z,3.22
2018-03-22T07:13:29.956Z,3.22
2018-03-22T07:14:30.312Z,3.31
2018-03-22T07:15:30.221Z,3.22
2018-03-22T07:16:30.106Z,3.19
2018-03-22T07:17:30.075Z,3.13
2018-03-22T07:18:30.049Z,3.1
2018-03-22T07:19:30.027Z,3.21
2018-03-22T07:20:29.985Z,3.14
2018-03-22T07:21:29.456Z,3.28
2018-03-22T07:22:29.937Z,3.16
2018-03-22T07:23:29.891Z,3.14
2018-03-22T07:24:29.859Z,3.21
2018-03-22T07:25:29.941Z,3.1
2018-03-22T07:26:29.806Z,3.11
2018-03-22T07:27:29.772Z,3.14
2018-03-22T07:28:29.747Z,3.07
2018-03-22T07:29:29.468Z,3.14
2018-03-22T07:30:29.682Z,3.11
2018-03-22T07:31:29.408Z,3.1
2018-03-22T07:32:29.377Z,3.16
2018-03-22T07:33:29.089Z,3.08
2018-03-22T07:34:29.566Z,3.01
2018-03-22T07:35:29.641Z,3.11
2018-03-22T07:36:29.641Z,3.18
2018-03-22T07:37:29.466Z,3.14
2018-03-22T07:38:29.192Z,3.13
2018-03-22T07:39:29.592Z,3.21
2018-03-22T07:40:29.126Z,3.21
2018-03-22T07:41:29.349Z,3.13
2018-03-22T07:42:29.317Z,3.13
2018-03-22T07:43:29.286Z,3.25
2018-03-22T07:44:29.276Z,3.19
2018-03-22T07:45:28.981Z,3.18
2018-03-22T07:46:29.245Z,3.18
2018-03-22T07:47:29.065Z,3.13
2018-03-22T07:48:28.884Z,3.18
2018-03-22T07:49:29.112Z,3.14
2018-03-22T07:50:29.004Z,3.16
2018-03-22T07:51:29.046Z,3.22
2018-03-22T07:52:28.917Z,3.1
2018-03-22T07:53:29.550Z,3.13
2018-03-22T07:54:28.946Z,3.07
2018-03-22T07:55:28.685Z,3.11
2018-03-22T07:56:28.648Z,3.13
2018-03-22T07:57:28.902Z,3.11
2018-03-22T07:58:28.833Z,3
2018-03-22T07:59:28.811Z,2.97
2018-03-22T08:00:28.785Z,2.95
2018-03-22T08:01:28.747Z,2.9
2018-03-22T08:02:28.713Z,2.93
2018-03-22T08:03:28.434Z,2.95
2018-03-22T08:04:28.448Z,3
2018-03-22T08:05:28.943Z,2.97
2018-03-22T08:06:29.778Z,3.03
2018-03-22T08:07:28.937Z,3.04
2018-03-22T08:08:28.531Z,3.1
2018-03-22T08:09:28.315Z,3.13
2018-03-22T08:10:28.466Z,3.18
2018-03-22T08:11:28.434Z,3.22
2018-03-22T08:12:28.865Z,3.23
2018-03-22T08:13:28.125Z,3.21
2018-03-22T08:14:28.107Z,3.16
2018-03-22T08:15:28.313Z,3.14
2018-03-22T08:16:28.301Z,3.18
2018-03-22T08:17:28.259Z,3.14
2018-03-22T08:18:28.233Z,3.13
2018-03-22T08:19:27.948Z,3.23
2018-03-22T08:20:27.671Z,3.26
2018-03-22T08:21:28.161Z,3.18
2018-03-22T08:22:28.112Z,3.28
2018-03-22T08:23:28.509Z,3.25
2018-03-22T08:24:27.806Z,3.34
2018-03-22T08:25:27.769Z,3.25
2018-03-22T08:26:27.995Z,3.32
2018-03-22T08:27:27.965Z,3.26
2018-03-22T08:28:27.926Z,3.29
2018-03-22T08:29:28.200Z,3.23
2018-03-22T08:30:27.622Z,3.37
2018-03-22T08:31:27.591Z,3.31
2018-03-22T08:32:27.557Z,3.41
2018-03-22T08:33:27.781Z,3.44
2018-03-22T08:34:27.746Z,3.4
2018-03-22T08:35:27.720Z,3.29
2018-03-22T08:36:27.687Z,3.4
2018-03-22T08:37:27.412Z,3.32
2018-03-22T08:38:27.632Z,3.4
2018-03-22T08:39:27.649Z,3.41
2018-03-22T08:40:27.583Z,3.28
2018-03-22T08:41:27.384Z,3.4
2018-03-22T08:42:27.513Z,3.26
2018-03-22T08:43:27.484Z,3.41
2018-03-22T08:44:27.451Z,3.29
2018-03-22T08:45:27.428Z,3.4
2018-03-22T08:46:26.895Z,3.4
2018-03-22T08:47:27.369Z,3.37
2018-03-22T08:48:27.333Z,3.36
2018-03-22T08:49:27.316Z,3.41
2018-03-22T08:50:26.873Z,3.48
2018-03-22T08:51:27.264Z,3.5
2018-03-22T08:52:26.758Z,3.48
2018-03-22T08:53:27.264Z,3.48
2018-03-22T08:54:26.906Z,3.47
2018-03-22T08:55:26.909Z,3.55
2018-03-22T08:56:26.904Z,3.59
2018-03-22T08:57:27.290Z,3.5
2018-03-22T08:58:27.615Z,3.65
2018-03-22T08:59:26.918Z,3.6
2018-03-22T09:00:26.729Z,3.58
2018-03-22T09:01:26.703Z,3.58
2018-03-22T09:02:26.921Z,3.58
2018-03-22T09:03:26.887Z,3.6
2018-03-22T09:04:26.853Z,3.66
2018-03-22T09:05:26.846Z,3.74
2018-03-22T09:06:26.815Z,3.74
2018-03-22T09:07:26.767Z,3.77
2018-03-22T09:08:26.737Z,3.78
2018-03-22T09:09:26.714Z,3.68
2018-03-22T09:10:26.680Z,3.73
2018-03-22T09:11:26.756Z,3.76
2018-03-22T09:12:26.622Z,3.74
2018-03-22T09:13:26.596Z,3.74
2018-03-22T09:14:26.803Z,3.7
2018-03-22T09:15:27.757Z,3.83
2018-03-22T09:16:26.288Z,3.74
2018-03-22T09:17:26.224Z,3.81
2018-03-22T09:18:27.351Z,3.88
2018-03-22T09:19:26.508Z,3.8
2018-03-22T09:20:27.897Z,3.92
2018-03-22T09:21:27.677Z,3.88
2018-03-22T09:22:27.060Z,3.96
2018-03-22T09:23:26.297Z,3.91
2018-03-22T09:24:26.267Z,3.88
2018-03-22T09:25:26.241Z,3.98
2018-03-22T09:26:25.964Z,3.88
2018-03-22T09:27:26.192Z,3.94
2018-03-22T09:28:25.900Z,3.92
2018-03-22T09:29:26.125Z,3.87
2018-03-22T09:30:26.094Z,3.88
2018-03-22T09:31:26.064Z,3.94
2018-03-22T09:32:26.034Z,3.99
2018-03-22T09:33:26.017Z,4.05
2018-03-22T09:34:25.973Z,4.1
2018-03-22T09:35:25.700Z,4.08
2018-03-22T09:36:25.914Z,4.04
2018-03-22T09:37:25.897Z,4.12
2018-03-22T09:38:25.607Z,4.08
2018-03-22T09:39:25.831Z,4.1
2018-03-22T09:40:25.975Z,4.01
2018-03-22T09:41:25.522Z,4.04
2018-03-22T09:42:25.743Z,4.04
2018-03-22T09:43:25.718Z,4.02
2018-03-22T09:44:25.446Z,4.02
2018-03-22T09:45:25.404Z,4.06
2018-03-22T09:46:25.631Z,4.1
2018-03-22T09:47:25.598Z,4.13
2018-03-22T09:48:25.587Z,4.12
2018-03-22T09:49:25.540Z,4.26
2018-03-22T09:50:25.514Z,4.2
2018-03-22T09:51:25.486Z,4.31
2018-03-22T09:52:25.463Z,4.31
2018-03-22T09:53:25.493Z,4.3
2018-03-22T09:54:25.396Z,4.31
2018-03-22T09:55:25.117Z,4.32
2018-03-22T09:56:25.362Z,4.31
2018-03-22T09:57:25.310Z,4.28
2018-03-22T09:58:25.289Z,4.28
2018-03-22T09:59:25.251Z,4.32
2018-03-22T10:00:24.729Z,4.26
2018-03-22T10:01:25.197Z,4.28
2018-03-22T10:02:24.920Z,4.34
2018-03-22T10:03:25.139Z,4.35
2018-03-22T10:04:24.863Z,4.41
2018-03-22T10:05:25.080Z,4.34
2018-03-22T10:06:24.947Z,4.31
2018-03-22T10:07:25.027Z,4.37
2018-03-22T10:08:25.017Z,4.35
2018-03-22T10:09:24.971Z,4.44
2018-03-22T10:10:24.939Z,4.5
2018-03-22T10:11:24.664Z,4.53
2018-03-22T10:12:24.633Z,4.55
2018-03-22T10:13:24.849Z,4.56
2018-03-22T10:14:24.576Z,4.62
2018-03-22T10:15:24.797Z,4.6
2018-03-22T10:16:24.926Z,4.67
2018-03-22T10:17:24.753Z,4.7
2018-03-22T10:18:24.757Z,4.71
2018-03-22T10:19:24.690Z,4.75
2018-03-22T10:20:24.655Z,4.75
2018-03-22T10:21:24.627Z,4.75
2018-03-22T10:22:24.604Z,4.75
2018-03-22T10:23:24.571Z,4.74
2018-03-22T10:24:24.298Z,4.68
2018-03-22T10:25:25.130Z,4.82
2018-03-22T10:26:24.508Z,4.82
2018-03-22T10:27:24.463Z,4.87
2018-03-22T10:28:24.435Z,4.89
2018-03-22T10:29:24.156Z,4.86
2018-03-22T10:30:24.129Z,4.9
2018-03-22T10:31:24.516Z,4.89
2018-03-22T10:32:24.147Z,4.8
2018-03-22T10:33:24.043Z,4.8
2018-03-22T10:34:24.078Z,4.92
2018-03-22T10:35:23.895Z,4.9
2018-03-22T10:36:24.719Z,4.86
2018-03-22T10:37:24.182Z,4.87
2018-03-22T10:38:24.152Z,4.86
2018-03-22T10:39:24.402Z,4.87
2018-03-22T10:40:24.097Z,4.93
2018-03-22T10:41:24.074Z,4.9
2018-03-22T10:42:23.788Z,4.9
2018-03-22T10:43:24.011Z,4.97
2018-03-22T10:44:24.093Z,4.93
2018-03-22T10:45:23.703Z,4.94
2018-03-22T10:46:23.928Z,4.99
2018-03-22T10:47:23.701Z,4.87
2018-03-22T10:48:23.924Z,4.86
2018-03-22T10:49:23.592Z,4.9
2018-03-22T10:50:23.814Z,4.87
2018-03-22T10:51:24.167Z,4.84
2018-03-22T10:52:23.974Z,4.96
2018-03-22T10:53:23.881Z,4.87
2018-03-22T10:54:23.694Z,4.97
2018-03-22T10:55:23.668Z,4.93
2018-03-22T10:56:23.643Z,4.92
2018-03-22T10:57:23.613Z,4.99
2018-03-22T10:58:23.587Z,4.93
2018-03-22T10:59:23.554Z,4.97
2018-03-22T11:00:23.292Z,5.04
2018-03-22T11:01:23.497Z,4.97
2018-03-22T11:02:23.470Z,4.99
2018-03-22T11:03:23.445Z,4.97
2018-03-22T11:04:23.423Z,5.04
2018-03-22T11:05:23.388Z,5
2018-03-22T11:06:23.107Z,4.97
2018-03-22T11:07:23.081Z,4.94
2018-03-22T11:08:23.306Z,4.96
2018-03-22T11:09:23.272Z,4.93
2018-03-22T11:10:23.002Z,4.99
2018-03-22T11:11:23.219Z,4.93
2018-03-22T11:12:22.942Z,4.94
2018-03-22T11:13:22.911Z,4.96
2018-03-22T11:14:23.128Z,4.97
2018-03-22T11:15:23.208Z,5.07
2018-03-22T11:16:23.074Z,5.02
2018-03-22T11:17:22.794Z,4.97
2018-03-22T11:18:23.030Z,5.05
2018-03-22T11:19:22.989Z,5.02
2018-03-22T11:20:22.713Z,5.05
2018-03-22T11:21:22.933Z,5.05
2018-03-22T11:22:22.902Z,5
2018-03-22T11:23:22.624Z,4.97
2018-03-22T11:24:22.844Z,5.11
2018-03-22T11:25:22.572Z,5.02
2018-03-22T11:26:22.851Z,5.07
2018-03-22T11:27:22.764Z,5.04
2018-03-22T11:28:22.736Z,5.08
2018-03-22T11:29:22.707Z,5.15
2018-03-22T11:30:22.703Z,5.11
2018-03-22T11:31:22.647Z,5.14
2018-03-22T11:32:22.624Z,5.17
2018-03-22T11:33:22.598Z,5.17
2018-03-22T11:34:22.573Z,5.15
2018-03-22T11:35:22.534Z,5.15
2018-03-22T11:36:22.510Z,5.11
2018-03-22T11:37:22.230Z,5.17
2018-03-22T11:38:22.452Z,5.21
2018-03-22T11:39:22.432Z,5.11
2018-03-22T11:40:22.147Z,5.14
2018-03-22T11:41:22.142Z,5.25
2018-03-22T11:42:22.090Z,5.18
2018-03-22T11:43:22.309Z,5.3
2018-03-22T11:44:22.294Z,5.3
2018-03-22T11:45:22.285Z,5.33
2018-03-22T11:46:22.231Z,5.28
2018-03-22T11:47:22.204Z,5.29
2018-03-22T11:48:22.217Z,5.33
2018-03-22T11:49:22.143Z,5.3
2018-03-22T11:50:22.142Z,5.36
2018-03-22T11:51:21.836Z,5.33
2018-03-22T11:52:21.811Z,5.43
2018-03-22T11:53:21.787Z,5.38
2018-03-22T11:54:21.505Z,5.32
2018-03-22T11:55:21.982Z,5.33
2018-03-22T11:56:21.958Z,5.41
2018-03-22T11:57:21.922Z,5.51
2018-03-22T11:58:21.889Z,5.46
2018-03-22T11:59:21.892Z,5.43
2018-03-22T12:00:21.839Z,5.61
2018-03-22T12:01:21.812Z,5.54
2018-03-22T12:02:21.535Z,5.57
2018-03-22T12:03:21.508Z,5.64
2018-03-22T12:04:21.476Z,5.66
2018-03-22T12:05:21.702Z,5.69
2018-03-22T12:06:21.423Z,5.71
2018-03-22T12:07:21.733Z,5.62
2018-03-22T12:08:21.619Z,5.68
2018-03-22T12:09:22.232Z,5.62
2018-03-22T12:10:21.566Z,5.71
2018-03-22T12:11:21.538Z,5.64
2018-03-22T12:12:21.592Z,5.71
2018-03-22T12:13:21.398Z,5.72
2018-03-22T12:14:21.451Z,5.68
2018-03-22T12:15:22.799Z,5.72
2018-03-22T12:16:21.396Z,5.73
2018-03-22T12:17:21.121Z,5.87
2018-03-22T12:18:21.344Z,5.87
2018-03-22T12:19:21.331Z,5.94
2018-03-22T12:20:21.324Z,5.89
2018-03-22T12:21:21.258Z,5.97
2018-03-22T12:22:21.246Z,6.04
2018-03-22T12:23:20.954Z,6.04
2018-03-22T12:24:20.941Z,6.09
2018-03-22T12:25:21.159Z,6.11
2018-03-22T12:26:20.878Z,6.12
2018-03-22T12:27:21.098Z,6.01
2018-03-22T12:28:21.250Z,6.11
2018-03-22T12:29:21.051Z,6.11
2018-03-22T12:30:21.020Z,6.14
2018-03-22T12:31:21.232Z,6.17
2018-03-22T12:32:21.050Z,6.26
2018-03-22T12:33:20.688Z,6.26
2018-03-22T12:34:20.907Z,6.33
2018-03-22T12:35:20.892Z,6.38
2018-03-22T12:36:20.858Z,6.42
2018-03-22T12:37:20.582Z,6.44
2018-03-22T12:38:20.804Z,6.48
2018-03-22T12:39:20.790Z,6.49
2018-03-22T12:40:20.746Z,6.62
2018-03-22T12:41:20.479Z,6.59
2018-03-22T12:42:20.699Z,6.7
2018-03-22T12:43:21.051Z,6.63
2018-03-22T12:44:20.656Z,6.66
2018-03-22T12:45:20.373Z,6.62
2018-03-22T12:46:20.595Z,6.64
2018-03-22T12:47:20.563Z,6.7
2018-03-22T12:48:20.540Z,6.77
2018-03-22T12:49:20.266Z,6.82
2018-03-22T12:50:20.538Z,6.88
2018-03-22T12:51:20.216Z,6.85
2018-03-22T12:52:20.444Z,6.96
2018-03-22T12:53:20.414Z,6.88
2018-03-22T12:54:20.387Z,6.87
2018-03-22T12:55:20.109Z,6.87
2018-03-22T12:56:20.087Z,6.87
2018-03-22T12:57:20.306Z,6.88
2018-03-22T12:58:20.278Z,6.87
2018-03-22T12:59:20.266Z,6.89
2018-03-22T13:00:19.982Z,6.88
2018-03-22T13:01:20.198Z,6.93
2018-03-22T13:02:20.174Z,6.92
2018-03-22T13:03:20.152Z,6.92
2018-03-22T13:04:19.871Z,6.85
2018-03-22T13:05:19.847Z,6.89
2018-03-22T13:06:20.075Z,6.81
2018-03-22T13:07:20.092Z,6.87
2018-03-22T13:08:20.019Z,6.88
2018-03-22T13:09:19.743Z,6.92
2018-03-22T13:10:19.972Z,6.93
2018-03-22T13:11:19.700Z,6.97
2018-03-22T13:12:19.901Z,6.95
2018-03-22T13:13:19.757Z,6.93
2018-03-22T13:14:19.860Z,6.93
2018-03-22T13:15:20.404Z,6.89
2018-03-22T13:16:19.805Z,6.81
2018-03-22T13:17:19.539Z,6.84
2018-03-22T13:18:19.754Z,6.79
2018-03-22T13:19:19.725Z,6.77
2018-03-22T13:20:19.706Z,6.82
2018-03-22T13:21:19.677Z,6.82